00:32
Airports
History
Links
Donate
Help keep this website running!
PayPal
Bitcoin
Information on this page is community maintained and may be outdated or inaccurate and is intended for reference only or PC simulator navigating!
Always use approved charts for navigating.
EDMO
Oberpfaffenhofen
Oberpfaffenhofen (EDMO)
Weßling, Bayern, Germany (82234)
(C)
Lat/Lng:48° 4' 53.83" N / 11° 17' 0.3" E
48.08162 / 11.283418
Elevation:1947'ft 593mMSL
ID / ICAO:EDMO
Runways:1
Longest:(04-22) 2,285.3m 7,498ft Asphalt
Controlled:Yes
Distance To
Airport ID:
Airport Radio Frequencies
Tower: 126.95, 119.55, 122.1
Approach: 120.77, 127.95
Nearby VORs <50NM
Nearby NDBs
METARUpdated 03-30-17 15:50 GMT
Altimeter: 29.80
Visibility: 6.2 statute miles
Wind: 10 knots (070°)
Temp: 15°c 59°f
Humidity: 38.5%

METAR: EDMO 301550Z 07010KT 050V110 CAVOK 15/01 Q1009

(Powered by phpweather)
Runway 04 / 22
Dimensions:2285.3 x 44.8m 7498' x 147'ft
Surface:Asphalt
Edge Lights:High intensity
Runway 04 [A]Runway 22 [B]
Heading:042°TH 222°TH
Lat:
Lng:
48° 4' 26.53"N
11° 16' 23.03"E
48° 5' 21.13"N
11° 17' 37.58"E
ALS:MALS
Google Map
Nearby Airports
(U) FURSTENFELDBRUCK 8.6 NM
ETSF (WX) N 355°
(C) Jesenwang 9.7 NM
EDMJ NW 311°
(C) Landsberg Lech 17.4 NM
ETSA (WX) W 267°
(C) LECHFELD 20.8 NM
ETSL (WX) WNW 290°
(C) Augsburg 28.6 NM
EDMA (WX) NW 325°
(C) Muenchen Franz-Josef Strauss 29.8 NM
EDDM (WX) NE 50°
(C) Kaufbeuren 34.4 NM
ED08 WSW 243°
VFR Chart
Flight Planning at SkyVector.com